sensor_id;sensor_type;location;lat;lon;timestamp;P1;durP1;ratioP1;P2;durP2;ratioP2
56039;SDS011;43937;41.366;2.072;2023-04-30T00:00:22;0.95;;;0.65;;
56039;SDS011;43937;41.366;2.072;2023-04-30T00:02:47;1.33;;;0.47;;
56039;SDS011;43937;41.366;2.072;2023-04-30T00:05:13;0.38;;;0.38;;
56039;SDS011;43937;41.366;2.072;2023-04-30T00:07:38;0.77;;;0.60;;
56039;SDS011;43937;41.366;2.072;2023-04-30T00:10:07;1.73;;;1.00;;
56039;SDS011;43937;41.366;2.072;2023-04-30T00:12:36;1.17;;;0.57;;
56039;SDS011;43937;41.366;2.072;2023-04-30T00:15:02;2.17;;;0.80;;
56039;SDS011;43937;41.366;2.072;2023-04-30T00:17:28;0.82;;;0.80;;
56039;SDS011;43937;41.366;2.072;2023-04-30T00:19:53;0.68;;;0.63;;
56039;SDS011;43937;41.366;2.072;2023-04-30T00:22:19;0.93;;;0.70;;
56039;SDS011;43937;41.366;2.072;2023-04-30T00:24:45;8.15;;;1.52;;
56039;SDS011;43937;41.366;2.072;2023-04-30T00:27:10;1.83;;;1.63;;
56039;SDS011;43937;41.366;2.072;2023-04-30T00:29:35;2.90;;;1.65;;
56039;SDS011;43937;41.366;2.072;2023-04-30T00:32:01;1.98;;;1.38;;
56039;SDS011;43937;41.366;2.072;2023-04-30T00:34:27;1.80;;;1.30;;
56039;SDS011;43937;41.366;2.072;2023-04-30T00:36:52;1.52;;;1.25;;
56039;SDS011;43937;41.366;2.072;2023-04-30T00:39:18;1.13;;;0.82;;
56039;SDS011;43937;41.366;2.072;2023-04-30T00:41:43;1.63;;;0.85;;
56039;SDS011;43937;41.366;2.072;2023-04-30T00:44:09;1.00;;;0.70;;
56039;SDS011;43937;41.366;2.072;2023-04-30T00:46:35;1.70;;;0.47;;
56039;SDS011;43937;41.366;2.072;2023-04-30T00:49:00;1.10;;;0.45;;
56039;SDS011;43937;41.366;2.072;2023-04-30T00:51:30;0.65;;;0.40;;
56039;SDS011;43937;41.366;2.072;2023-04-30T00:53:57;0.35;;;0.35;;
56039;SDS011;43937;41.366;2.072;2023-04-30T00:56:30;0.60;;;0.45;;
56039;SDS011;43937;41.366;2.072;2023-04-30T00:58:56;1.05;;;0.47;;
56039;SDS011;43937;41.366;2.072;2023-04-30T01:01:25;0.82;;;0.52;;
56039;SDS011;43937;41.366;2.072;2023-04-30T01:03:55;0.57;;;0.57;;
56039;SDS011;43937;41.366;2.072;2023-04-30T01:06:21;0.30;;;0.28;;
56039;SDS011;43937;41.366;2.072;2023-04-30T01:08:47;0.82;;;0.50;;
56039;SDS011;43937;41.366;2.072;2023-04-30T01:14:06;0.45;;;0.40;;
56039;SDS011;43937;41.366;2.072;2023-04-30T01:16:40;1.17;;;0.47;;
56039;SDS011;43937;41.366;2.072;2023-04-30T01:21:56;0.50;;;0.45;;
56039;SDS011;43937;41.366;2.072;2023-04-30T01:30:15;0.32;;;0.32;;
56039;SDS011;43937;41.366;2.072;2023-04-30T01:32:42;1.38;;;0.35;;
56039;SDS011;43937;41.366;2.072;2023-04-30T01:35:07;0.32;;;0.32;;
56039;SDS011;43937;41.366;2.072;2023-04-30T01:40:33;0.98;;;0.88;;
56039;SDS011;43937;41.366;2.072;2023-04-30T01:54:26;1.35;;;0.80;;
56039;SDS011;43937;41.366;2.072;2023-04-30T01:57:02;4.03;;;1.42;;
56039;SDS011;43937;41.366;2.072;2023-04-30T01:59:31;1.25;;;1.10;;
56039;SDS011;43937;41.366;2.072;2023-04-30T02:01:59;3.40;;;1.30;;
56039;SDS011;43937;41.366;2.072;2023-04-30T02:04:24;2.60;;;1.50;;
56039;SDS011;43937;41.366;2.072;2023-04-30T02:06:50;0.77;;;0.77;;
56039;SDS011;43937;41.366;2.072;2023-04-30T02:09:15;2.75;;;1.40;;
56039;SDS011;43937;41.366;2.072;2023-04-30T02:11:41;1.17;;;1.00;;
56039;SDS011;43937;41.366;2.072;2023-04-30T02:14:06;1.05;;;0.88;;
56039;SDS011;43937;41.366;2.072;2023-04-30T02:16:32;1.85;;;1.35;;
56039;SDS011;43937;41.366;2.072;2023-04-30T02:18:57;1.67;;;1.30;;
56039;SDS011;43937;41.366;2.072;2023-04-30T02:21:23;5.20;;;1.75;;
56039;SDS011;43937;41.366;2.072;2023-04-30T02:23:48;7.10;;;1.33;;
56039;SDS011;43937;41.366;2.072;2023-04-30T02:26:14;1.73;;;1.08;;
56039;SDS011;43937;41.366;2.072;2023-04-30T02:28:39;3.55;;;1.20;;
56039;SDS011;43937;41.366;2.072;2023-04-30T02:31:04;2.05;;;1.17;;
56039;SDS011;43937;41.366;2.072;2023-04-30T02:33:30;4.47;;;1.25;;
56039;SDS011;43937;41.366;2.072;2023-04-30T02:35:57;1.30;;;1.20;;
56039;SDS011;43937;41.366;2.072;2023-04-30T02:38:23;1.30;;;0.90;;
56039;SDS011;43937;41.366;2.072;2023-04-30T02:40:48;1.73;;;0.90;;
56039;SDS011;43937;41.366;2.072;2023-04-30T02:43:14;1.65;;;1.48;;
56039;SDS011;43937;41.366;2.072;2023-04-30T02:45:39;2.20;;;1.13;;
56039;SDS011;43937;41.366;2.072;2023-04-30T02:48:05;2.28;;;0.98;;
56039;SDS011;43937;41.366;2.072;2023-04-30T02:50:30;0.70;;;0.70;;
56039;SDS011;43937;41.366;2.072;2023-04-30T02:52:56;2.83;;;1.42;;
56039;SDS011;43937;41.366;2.072;2023-04-30T02:55:21;1.23;;;1.02;;
56039;SDS011;43937;41.366;2.072;2023-04-30T02:57:47;0.65;;;0.60;;
56039;SDS011;43937;41.366;2.072;2023-04-30T03:00:12;6.97;;;0.90;;
56039;SDS011;43937;41.366;2.072;2023-04-30T03:02:38;2.05;;;0.73;;
56039;SDS011;43937;41.366;2.072;2023-04-30T03:05:03;2.17;;;0.60;;
56039;SDS011;43937;41.366;2.072;2023-04-30T03:07:29;1.90;;;0.55;;
56039;SDS011;43937;41.366;2.072;2023-04-30T03:09:55;1.65;;;0.63;;
56039;SDS011;43937;41.366;2.072;2023-04-30T03:12:20;0.93;;;0.80;;
56039;SDS011;43937;41.366;2.072;2023-04-30T03:14:45;1.05;;;0.50;;
56039;SDS011;43937;41.366;2.072;2023-04-30T03:17:11;2.20;;;0.80;;
56039;SDS011;43937;41.366;2.072;2023-04-30T03:19:36;1.08;;;0.95;;
56039;SDS011;43937;41.366;2.072;2023-04-30T03:22:02;0.57;;;0.50;;
56039;SDS011;43937;41.366;2.072;2023-04-30T03:24:27;0.52;;;0.50;;
56039;SDS011;43937;41.366;2.072;2023-04-30T03:26:53;0.88;;;0.50;;
56039;SDS011;43937;41.366;2.072;2023-04-30T03:29:18;0.43;;;0.43;;
56039;SDS011;43937;41.366;2.072;2023-04-30T03:31:44;1.48;;;0.82;;
56039;SDS011;43937;41.366;2.072;2023-04-30T03:34:09;0.63;;;0.63;;
56039;SDS011;43937;41.366;2.072;2023-04-30T03:36:35;0.88;;;0.50;;
56039;SDS011;43937;41.366;2.072;2023-04-30T03:39:01;0.38;;;0.38;;
56039;SDS011;43937;41.366;2.072;2023-04-30T03:41:26;0.93;;;0.60;;
56039;SDS011;43937;41.366;2.072;2023-04-30T03:43:52;0.45;;;0.45;;
56039;SDS011;43937;41.366;2.072;2023-04-30T03:46:18;0.40;;;0.40;;
56039;SDS011;43937;41.366;2.072;2023-04-30T03:48:43;1.00;;;0.73;;
56039;SDS011;43937;41.366;2.072;2023-04-30T03:51:09;1.58;;;0.85;;
56039;SDS011;43937;41.366;2.072;2023-04-30T03:53:34;1.40;;;0.55;;
56039;SDS011;43937;41.366;2.072;2023-04-30T03:56:00;1.48;;;0.75;;
56039;SDS011;43937;41.366;2.072;2023-04-30T03:58:26;3.33;;;0.90;;
56039;SDS011;43937;41.366;2.072;2023-04-30T04:00:52;7.90;;;1.13;;
56039;SDS011;43937;41.366;2.072;2023-04-30T04:03:18;3.30;;;0.65;;
56039;SDS011;43937;41.366;2.072;2023-04-30T04:05:44;1.65;;;1.10;;
56039;SDS011;43937;41.366;2.072;2023-04-30T04:08:10;1.63;;;0.90;;
56039;SDS011;43937;41.366;2.072;2023-04-30T04:10:35;3.35;;;0.60;;
56039;SDS011;43937;41.366;2.072;2023-04-30T04:13:01;3.90;;;1.13;;
56039;SDS011;43937;41.366;2.072;2023-04-30T04:15:26;1.45;;;0.73;;
56039;SDS011;43937;41.366;2.072;2023-04-30T04:17:52;1.83;;;0.93;;
56039;SDS011;43937;41.366;2.072;2023-04-30T04:20:17;1.08;;;0.65;;
56039;SDS011;43937;41.366;2.072;2023-04-30T04:22:43;1.17;;;0.95;;
56039;SDS011;43937;41.366;2.072;2023-04-30T04:25:08;1.40;;;0.75;;
56039;SDS011;43937;41.366;2.072;2023-04-30T04:27:34;0.50;;;0.50;;
56039;SDS011;43937;41.366;2.072;2023-04-30T04:30:00;2.53;;;1.20;;
56039;SDS011;43937;41.366;2.072;2023-04-30T04:32:29;1.13;;;1.00;;
56039;SDS011;43937;41.366;2.072;2023-04-30T04:34:56;1.40;;;1.30;;
56039;SDS011;43937;41.366;2.072;2023-04-30T04:37:22;1.08;;;0.65;;
56039;SDS011;43937;41.366;2.072;2023-04-30T04:39:48;0.60;;;0.60;;
56039;SDS011;43937;41.366;2.072;2023-04-30T04:42:14;0.50;;;0.50;;
56039;SDS011;43937;41.366;2.072;2023-04-30T04:44:41;1.10;;;1.00;;
56039;SDS011;43937;41.366;2.072;2023-04-30T04:47:07;1.48;;;0.93;;
56039;SDS011;43937;41.366;2.072;2023-04-30T04:49:34;0.43;;;0.40;;
56039;SDS011;43937;41.366;2.072;2023-04-30T04:51:59;1.02;;;0.90;;
56039;SDS011;43937;41.366;2.072;2023-04-30T04:54:26;0.45;;;0.40;;
56039;SDS011;43937;41.366;2.072;2023-04-30T04:56:51;2.97;;;1.00;;
56039;SDS011;43937;41.366;2.072;2023-04-30T04:59:17;2.70;;;1.00;;
56039;SDS011;43937;41.366;2.072;2023-04-30T05:01:43;2.45;;;1.13;;
56039;SDS011;43937;41.366;2.072;2023-04-30T05:04:08;1.00;;;0.90;;
56039;SDS011;43937;41.366;2.072;2023-04-30T05:06:34;1.73;;;1.08;;
56039;SDS011;43937;41.366;2.072;2023-04-30T05:09:00;3.65;;;1.70;;
56039;SDS011;43937;41.366;2.072;2023-04-30T05:11:25;2.47;;;1.83;;
56039;SDS011;43937;41.366;2.072;2023-04-30T05:13:50;1.20;;;0.80;;
56039;SDS011;43937;41.366;2.072;2023-04-30T05:16:16;2.55;;;0.82;;
56039;SDS011;43937;41.366;2.072;2023-04-30T05:18:41;1.17;;;0.88;;
56039;SDS011;43937;41.366;2.072;2023-04-30T05:21:07;1.20;;;1.10;;
56039;SDS011;43937;41.366;2.072;2023-04-30T05:23:32;0.80;;;0.80;;
56039;SDS011;43937;41.366;2.072;2023-04-30T05:25:58;1.17;;;1.00;;
56039;SDS011;43937;41.366;2.072;2023-04-30T05:28:23;1.85;;;1.00;;
56039;SDS011;43937;41.366;2.072;2023-04-30T05:30:49;6.07;;;1.70;;
56039;SDS011;43937;41.366;2.072;2023-04-30T05:33:14;0.90;;;0.73;;
56039;SDS011;43937;41.366;2.072;2023-04-30T05:35:40;1.98;;;1.20;;
56039;SDS011;43937;41.366;2.072;2023-04-30T05:38:05;5.07;;;0.85;;
56039;SDS011;43937;41.366;2.072;2023-04-30T05:40:56;0.73;;;0.73;;
56039;SDS011;43937;41.366;2.072;2023-04-30T05:43:21;0.65;;;0.65;;
56039;SDS011;43937;41.366;2.072;2023-04-30T05:45:47;1.80;;;0.80;;
56039;SDS011;43937;41.366;2.072;2023-04-30T05:48:12;0.80;;;0.50;;
56039;SDS011;43937;41.366;2.072;2023-04-30T05:50:38;1.15;;;0.82;;
56039;SDS011;43937;41.366;2.072;2023-04-30T05:53:03;2.50;;;0.90;;
56039;SDS011;43937;41.366;2.072;2023-04-30T05:55:29;0.75;;;0.60;;
56039;SDS011;43937;41.366;2.072;2023-04-30T05:57:55;0.63;;;0.60;;
56039;SDS011;43937;41.366;2.072;2023-04-30T06:00:54;1.05;;;0.55;;
56039;SDS011;43937;41.366;2.072;2023-04-30T06:03:20;3.05;;;0.95;;
56039;SDS011;43937;41.366;2.072;2023-04-30T06:05:46;1.98;;;0.55;;
56039;SDS011;43937;41.366;2.072;2023-04-30T06:08:12;5.78;;;1.02;;
56039;SDS011;43937;41.366;2.072;2023-04-30T06:10:37;0.60;;;0.38;;
56039;SDS011;43937;41.366;2.072;2023-04-30T06:13:04;1.20;;;0.73;;
56039;SDS011;43937;41.366;2.072;2023-04-30T06:15:30;0.70;;;0.50;;
56039;SDS011;43937;41.366;2.072;2023-04-30T06:17:56;0.77;;;0.63;;
56039;SDS011;43937;41.366;2.072;2023-04-30T06:20:21;1.27;;;0.68;;
56039;SDS011;43937;41.366;2.072;2023-04-30T06:24:37;1.55;;;0.75;;
56039;SDS011;43937;41.366;2.072;2023-04-30T06:27:02;0.63;;;0.63;;
56039;SDS011;43937;41.366;2.072;2023-04-30T06:29:29;0.80;;;0.63;;
56039;SDS011;43937;41.366;2.072;2023-04-30T06:31:54;1.00;;;0.57;;
56039;SDS011;43937;41.366;2.072;2023-04-30T06:34:20;0.63;;;0.60;;
56039;SDS011;43937;41.366;2.072;2023-04-30T06:36:46;1.38;;;0.82;;
56039;SDS011;43937;41.366;2.072;2023-04-30T06:39:14;0.85;;;0.75;;
56039;SDS011;43937;41.366;2.072;2023-04-30T06:41:40;1.48;;;0.70;;
56039;SDS011;43937;41.366;2.072;2023-04-30T06:44:07;0.68;;;0.68;;
56039;SDS011;43937;41.366;2.072;2023-04-30T06:46:33;0.50;;;0.50;;
56039;SDS011;43937;41.366;2.072;2023-04-30T06:48:58;1.50;;;0.63;;
56039;SDS011;43937;41.366;2.072;2023-04-30T06:51:24;0.80;;;0.50;;
56039;SDS011;43937;41.366;2.072;2023-04-30T06:53:50;0.50;;;0.50;;
56039;SDS011;43937;41.366;2.072;2023-04-30T06:56:16;0.80;;;0.70;;
56039;SDS011;43937;41.366;2.072;2023-04-30T06:58:42;0.45;;;0.45;;
56039;SDS011;43937;41.366;2.072;2023-04-30T07:01:07;0.60;;;0.50;;
56039;SDS011;43937;41.366;2.072;2023-04-30T07:03:33;0.88;;;0.50;;
56039;SDS011;43937;41.366;2.072;2023-04-30T07:05:59;0.63;;;0.57;;
56039;SDS011;43937;41.366;2.072;2023-04-30T07:08:25;0.60;;;0.60;;
56039;SDS011;43937;41.366;2.072;2023-04-30T07:10:50;0.60;;;0.60;;
56039;SDS011;43937;41.366;2.072;2023-04-30T07:13:15;1.17;;;0.77;;
56039;SDS011;43937;41.366;2.072;2023-04-30T07:15:41;0.82;;;0.60;;
56039;SDS011;43937;41.366;2.072;2023-04-30T07:18:06;0.50;;;0.50;;
56039;SDS011;43937;41.366;2.072;2023-04-30T07:20:32;0.77;;;0.77;;
56039;SDS011;43937;41.366;2.072;2023-04-30T07:22:58;0.98;;;0.50;;
56039;SDS011;43937;41.366;2.072;2023-04-30T07:25:23;0.57;;;0.57;;
56039;SDS011;43937;41.366;2.072;2023-04-30T07:27:50;0.50;;;0.50;;
56039;SDS011;43937;41.366;2.072;2023-04-30T07:30:16;0.75;;;0.60;;
56039;SDS011;43937;41.366;2.072;2023-04-30T07:32:42;0.88;;;0.55;;
56039;SDS011;43937;41.366;2.072;2023-04-30T07:35:08;1.10;;;0.60;;
56039;SDS011;43937;41.366;2.072;2023-04-30T07:37:33;0.90;;;0.70;;
56039;SDS011;43937;41.366;2.072;2023-04-30T07:39:59;0.82;;;0.50;;
56039;SDS011;43937;41.366;2.072;2023-04-30T07:42:24;0.95;;;0.70;;
56039;SDS011;43937;41.366;2.072;2023-04-30T07:44:50;0.73;;;0.63;;
56039;SDS011;43937;41.366;2.072;2023-04-30T07:47:16;1.13;;;0.85;;
56039;SDS011;43937;41.366;2.072;2023-04-30T07:49:43;1.23;;;0.80;;
56039;SDS011;43937;41.366;2.072;2023-04-30T07:52:10;0.40;;;0.40;;
56039;SDS011;43937;41.366;2.072;2023-04-30T07:55:20;2.05;;;0.90;;
56039;SDS011;43937;41.366;2.072;2023-04-30T07:57:46;1.25;;;0.50;;
56039;SDS011;43937;41.366;2.072;2023-04-30T08:01:26;0.43;;;0.40;;
56039;SDS011;43937;41.366;2.072;2023-04-30T08:03:51;2.10;;;1.05;;
56039;SDS011;43937;41.366;2.072;2023-04-30T08:06:16;2.92;;;0.52;;
56039;SDS011;43937;41.366;2.072;2023-04-30T08:08:42;0.75;;;0.60;;
56039;SDS011;43937;41.366;2.072;2023-04-30T08:11:07;0.65;;;0.65;;
56039;SDS011;43937;41.366;2.072;2023-04-30T08:13:33;2.60;;;0.75;;
56039;SDS011;43937;41.366;2.072;2023-04-30T08:15:58;0.50;;;0.50;;
56039;SDS011;43937;41.366;2.072;2023-04-30T08:18:24;1.08;;;0.63;;
56039;SDS011;43937;41.366;2.072;2023-04-30T08:20:49;0.98;;;0.63;;
56039;SDS011;43937;41.366;2.072;2023-04-30T08:23:15;4.13;;;0.70;;
56039;SDS011;43937;41.366;2.072;2023-04-30T08:25:41;3.30;;;0.50;;
56039;SDS011;43937;41.366;2.072;2023-04-30T08:28:06;3.38;;;0.82;;
56039;SDS011;43937;41.366;2.072;2023-04-30T08:30:31;3.63;;;0.68;;
56039;SDS011;43937;41.366;2.072;2023-04-30T08:32:57;0.50;;;0.50;;
56039;SDS011;43937;41.366;2.072;2023-04-30T08:35:23;0.70;;;0.70;;
56039;SDS011;43937;41.366;2.072;2023-04-30T08:37:48;1.25;;;0.60;;
56039;SDS011;43937;41.366;2.072;2023-04-30T08:40:14;0.73;;;0.73;;
56039;SDS011;43937;41.366;2.072;2023-04-30T08:42:41;1.20;;;0.68;;
56039;SDS011;43937;41.366;2.072;2023-04-30T08:45:10;2.05;;;0.63;;
56039;SDS011;43937;41.366;2.072;2023-04-30T08:47:37;0.70;;;0.70;;
56039;SDS011;43937;41.366;2.072;2023-04-30T08:50:03;5.72;;;0.90;;
56039;SDS011;43937;41.366;2.072;2023-04-30T08:53:22;0.80;;;0.80;;
56039;SDS011;43937;41.366;2.072;2023-04-30T08:55:47;0.63;;;0.60;;
56039;SDS011;43937;41.366;2.072;2023-04-30T08:58:13;0.80;;;0.80;;
56039;SDS011;43937;41.366;2.072;2023-04-30T09:00:38;1.17;;;0.50;;
56039;SDS011;43937;41.366;2.072;2023-04-30T09:03:04;1.15;;;0.50;;
56039;SDS011;43937;41.366;2.072;2023-04-30T09:05:32;0.70;;;0.50;;
56039;SDS011;43937;41.366;2.072;2023-04-30T09:07:57;1.33;;;0.60;;
56039;SDS011;43937;41.366;2.072;2023-04-30T09:10:23;0.50;;;0.50;;
56039;SDS011;43937;41.366;2.072;2023-04-30T09:13:04;0.73;;;0.40;;
56039;SDS011;43937;41.366;2.072;2023-04-30T09:15:31;1.40;;;0.60;;
56039;SDS011;43937;41.366;2.072;2023-04-30T09:20:55;1.88;;;0.73;;
56039;SDS011;43937;41.366;2.072;2023-04-30T09:23:26;0.52;;;0.52;;
56039;SDS011;43937;41.366;2.072;2023-04-30T09:25:51;2.25;;;0.93;;
56039;SDS011;43937;41.366;2.072;2023-04-30T09:29:16;0.77;;;0.77;;
56039;SDS011;43937;41.366;2.072;2023-04-30T09:31:42;0.70;;;0.70;;
56039;SDS011;43937;41.366;2.072;2023-04-30T09:34:10;0.82;;;0.82;;
56039;SDS011;43937;41.366;2.072;2023-04-30T09:36:35;0.65;;;0.65;;
56039;SDS011;43937;41.366;2.072;2023-04-30T09:39:07;1.10;;;0.80;;
56039;SDS011;43937;41.366;2.072;2023-04-30T09:41:43;0.77;;;0.70;;
56039;SDS011;43937;41.366;2.072;2023-04-30T09:44:28;1.60;;;1.50;;
56039;SDS011;43937;41.366;2.072;2023-04-30T09:46:55;1.13;;;1.00;;
56039;SDS011;43937;41.366;2.072;2023-04-30T09:49:22;2.90;;;1.30;;
56039;SDS011;43937;41.366;2.072;2023-04-30T09:51:58;1.50;;;1.25;;
56039;SDS011;43937;41.366;2.072;2023-04-30T09:54:26;1.67;;;1.35;;
56039;SDS011;43937;41.366;2.072;2023-04-30T09:56:54;1.63;;;1.48;;
56039;SDS011;43937;41.366;2.072;2023-04-30T09:59:24;2.47;;;1.45;;
56039;SDS011;43937;41.366;2.072;2023-04-30T10:01:57;1.30;;;1.20;;
56039;SDS011;43937;41.366;2.072;2023-04-30T10:06:24;1.77;;;1.60;;
56039;SDS011;43937;41.366;2.072;2023-04-30T10:08:52;1.70;;;1.55;;
56039;SDS011;43937;41.366;2.072;2023-04-30T10:11:21;2.38;;;1.92;;
56039;SDS011;43937;41.366;2.072;2023-04-30T10:14:01;2.92;;;1.80;;
56039;SDS011;43937;41.366;2.072;2023-04-30T10:17:16;1.77;;;1.50;;
56039;SDS011;43937;41.366;2.072;2023-04-30T10:19:22;5.32;;;1.98;;
56039;SDS011;43937;41.366;2.072;2023-04-30T10:21:49;2.08;;;1.77;;
56039;SDS011;43937;41.366;2.072;2023-04-30T10:24:16;1.42;;;1.17;;
56039;SDS011;43937;41.366;2.072;2023-04-30T10:26:44;0.93;;;0.88;;
56039;SDS011;43937;41.366;2.072;2023-04-30T10:29:13;1.67;;;1.25;;
56039;SDS011;43937;41.366;2.072;2023-04-30T10:31:40;1.85;;;1.33;;
56039;SDS011;43937;41.366;2.072;2023-04-30T10:39:08;1.45;;;1.35;;
56039;SDS011;43937;41.366;2.072;2023-04-30T10:41:36;1.05;;;0.95;;
56039;SDS011;43937;41.366;2.072;2023-04-30T10:44:02;1.95;;;1.42;;
56039;SDS011;43937;41.366;2.072;2023-04-30T10:46:29;1.50;;;1.40;;
56039;SDS011;43937;41.366;2.072;2023-04-30T10:48:55;3.13;;;1.48;;
56039;SDS011;43937;41.366;2.072;2023-04-30T10:51:21;6.18;;;1.67;;
56039;SDS011;43937;41.366;2.072;2023-04-30T10:53:50;2.53;;;1.35;;
56039;SDS011;43937;41.366;2.072;2023-04-30T10:56:30;2.85;;;1.55;;
56039;SDS011;43937;41.366;2.072;2023-04-30T10:59:00;2.33;;;1.20;;
56039;SDS011;43937;41.366;2.072;2023-04-30T11:01:27;2.38;;;1.17;;
56039;SDS011;43937;41.366;2.072;2023-04-30T11:04:06;3.00;;;2.30;;
56039;SDS011;43937;41.366;2.072;2023-04-30T11:09:16;3.80;;;1.80;;
56039;SDS011;43937;41.366;2.072;2023-04-30T11:11:45;3.80;;;2.00;;
56039;SDS011;43937;41.366;2.072;2023-04-30T11:14:19;2.22;;;1.38;;
56039;SDS011;43937;41.366;2.072;2023-04-30T11:16:47;2.28;;;1.60;;
56039;SDS011;43937;41.366;2.072;2023-04-30T11:19:14;5.07;;;2.15;;
56039;SDS011;43937;41.366;2.072;2023-04-30T11:21:40;3.22;;;1.80;;
56039;SDS011;43937;41.366;2.072;2023-04-30T11:24:06;4.18;;;2.05;;
56039;SDS011;43937;41.366;2.072;2023-04-30T11:29:29;2.05;;;1.40;;
56039;SDS011;43937;41.366;2.072;2023-04-30T11:31:59;2.50;;;1.40;;
56039;SDS011;43937;41.366;2.072;2023-04-30T11:34:25;3.13;;;1.50;;
56039;SDS011;43937;41.366;2.072;2023-04-30T11:36:51;1.02;;;0.77;;
56039;SDS011;43937;41.366;2.072;2023-04-30T11:39:21;2.15;;;1.10;;
56039;SDS011;43937;41.366;2.072;2023-04-30T11:41:48;3.00;;;1.27;;
56039;SDS011;43937;41.366;2.072;2023-04-30T11:44:26;1.23;;;0.70;;
56039;SDS011;43937;41.366;2.072;2023-04-30T11:46:52;1.20;;;1.10;;
56039;SDS011;43937;41.366;2.072;2023-04-30T11:49:21;2.25;;;1.30;;
56039;SDS011;43937;41.366;2.072;2023-04-30T11:51:49;1.92;;;1.30;;
56039;SDS011;43937;41.366;2.072;2023-04-30T11:54:15;2.90;;;1.50;;
56039;SDS011;43937;41.366;2.072;2023-04-30T11:57:24;1.95;;;0.90;;
56039;SDS011;43937;41.366;2.072;2023-04-30T11:59:50;2.55;;;1.33;;
56039;SDS011;43937;41.366;2.072;2023-04-30T12:02:15;6.47;;;1.50;;
56039;SDS011;43937;41.366;2.072;2023-04-30T12:04:42;1.40;;;1.30;;
56039;SDS011;43937;41.366;2.072;2023-04-30T12:08:02;4.05;;;2.88;;
56039;SDS011;43937;41.366;2.072;2023-04-30T12:10:31;3.58;;;1.20;;
56039;SDS011;43937;41.366;2.072;2023-04-30T12:12:56;2.03;;;1.20;;
56039;SDS011;43937;41.366;2.072;2023-04-30T12:15:23;6.35;;;1.30;;
56039;SDS011;43937;41.366;2.072;2023-04-30T12:17:56;1.85;;;1.30;;
56039;SDS011;43937;41.366;2.072;2023-04-30T12:20:23;1.77;;;1.20;;
56039;SDS011;43937;41.366;2.072;2023-04-30T12:22:51;2.35;;;1.40;;
56039;SDS011;43937;41.366;2.072;2023-04-30T12:25:17;2.10;;;1.25;;
56039;SDS011;43937;41.366;2.072;2023-04-30T12:27:44;2.95;;;1.75;;
56039;SDS011;43937;41.366;2.072;2023-04-30T12:30:11;1.70;;;0.98;;
56039;SDS011;43937;41.366;2.072;2023-04-30T12:32:38;1.20;;;1.10;;
56039;SDS011;43937;41.366;2.072;2023-04-30T12:35:05;1.83;;;1.38;;
56039;SDS011;43937;41.366;2.072;2023-04-30T12:37:31;2.05;;;1.15;;
56039;SDS011;43937;41.366;2.072;2023-04-30T12:39:57;1.58;;;1.48;;
56039;SDS011;43937;41.366;2.072;2023-04-30T12:42:24;4.43;;;1.70;;
56039;SDS011;43937;41.366;2.072;2023-04-30T12:44:49;1.83;;;1.23;;
56039;SDS011;43937;41.366;2.072;2023-04-30T12:47:15;1.65;;;1.33;;
56039;SDS011;43937;41.366;2.072;2023-04-30T12:49:40;1.40;;;1.27;;
56039;SDS011;43937;41.366;2.072;2023-04-30T12:53:01;1.67;;;1.33;;
56039;SDS011;43937;41.366;2.072;2023-04-30T12:55:27;5.75;;;1.40;;
56039;SDS011;43937;41.366;2.072;2023-04-30T12:58:03;3.85;;;1.45;;
56039;SDS011;43937;41.366;2.072;2023-04-30T13:00:51;1.88;;;1.13;;
56039;SDS011;43937;41.366;2.072;2023-04-30T13:03:19;1.70;;;1.10;;
56039;SDS011;43937;41.366;2.072;2023-04-30T13:05:47;1.10;;;1.00;;
56039;SDS011;43937;41.366;2.072;2023-04-30T13:08:14;2.45;;;1.73;;
56039;SDS011;43937;41.366;2.072;2023-04-30T13:10:40;1.75;;;1.30;;
56039;SDS011;43937;41.366;2.072;2023-04-30T13:13:06;1.10;;;0.80;;
56039;SDS011;43937;41.366;2.072;2023-04-30T13:15:31;2.80;;;1.27;;
56039;SDS011;43937;41.366;2.072;2023-04-30T13:17:57;0.90;;;0.80;;
56039;SDS011;43937;41.366;2.072;2023-04-30T13:20:22;1.10;;;0.65;;
56039;SDS011;43937;41.366;2.072;2023-04-30T13:22:49;1.40;;;0.88;;
56039;SDS011;43937;41.366;2.072;2023-04-30T13:25:15;1.33;;;0.93;;
56039;SDS011;43937;41.366;2.072;2023-04-30T13:27:41;1.70;;;0.85;;
56039;SDS011;43937;41.366;2.072;2023-04-30T13:30:08;0.63;;;0.63;;
56039;SDS011;43937;41.366;2.072;2023-04-30T13:32:34;0.93;;;0.85;;
56039;SDS011;43937;41.366;2.072;2023-04-30T13:35:01;2.08;;;0.90;;
56039;SDS011;43937;41.366;2.072;2023-04-30T13:37:27;0.77;;;0.60;;
56039;SDS011;43937;41.366;2.072;2023-04-30T13:39:55;0.88;;;0.57;;
56039;SDS011;43937;41.366;2.072;2023-04-30T13:42:21;1.10;;;1.00;;
56039;SDS011;43937;41.366;2.072;2023-04-30T13:44:46;0.88;;;0.60;;
56039;SDS011;43937;41.366;2.072;2023-04-30T13:47:14;0.85;;;0.73;;
56039;SDS011;43937;41.366;2.072;2023-04-30T13:49:40;0.45;;;0.40;;
56039;SDS011;43937;41.366;2.072;2023-04-30T13:52:05;0.65;;;0.60;;
56039;SDS011;43937;41.366;2.072;2023-04-30T13:54:31;3.25;;;1.05;;
56039;SDS011;43937;41.366;2.072;2023-04-30T13:56:57;0.90;;;0.68;;
56039;SDS011;43937;41.366;2.072;2023-04-30T13:59:23;1.77;;;1.20;;
56039;SDS011;43937;41.366;2.072;2023-04-30T14:01:49;1.83;;;1.17;;
56039;SDS011;43937;41.366;2.072;2023-04-30T14:04:14;1.80;;;0.98;;
56039;SDS011;43937;41.366;2.072;2023-04-30T14:06:40;1.27;;;1.10;;
56039;SDS011;43937;41.366;2.072;2023-04-30T14:09:06;1.17;;;0.68;;
56039;SDS011;43937;41.366;2.072;2023-04-30T14:11:31;1.48;;;1.10;;
56039;SDS011;43937;41.366;2.072;2023-04-30T14:13:57;1.77;;;1.00;;
56039;SDS011;43937;41.366;2.072;2023-04-30T14:16:22;1.73;;;0.85;;
56039;SDS011;43937;41.366;2.072;2023-04-30T14:18:49;1.08;;;0.85;;
56039;SDS011;43937;41.366;2.072;2023-04-30T14:21:14;0.82;;;0.60;;
56039;SDS011;43937;41.366;2.072;2023-04-30T14:23:40;0.75;;;0.70;;
56039;SDS011;43937;41.366;2.072;2023-04-30T14:26:05;1.38;;;0.88;;
56039;SDS011;43937;41.366;2.072;2023-04-30T14:28:31;1.08;;;0.60;;
56039;SDS011;43937;41.366;2.072;2023-04-30T14:30:57;0.60;;;0.60;;
56039;SDS011;43937;41.366;2.072;2023-04-30T14:33:22;1.77;;;0.95;;
56039;SDS011;43937;41.366;2.072;2023-04-30T14:35:48;1.65;;;0.60;;
56039;SDS011;43937;41.366;2.072;2023-04-30T14:38:13;7.70;;;1.02;;
56039;SDS011;43937;41.366;2.072;2023-04-30T14:40:39;1.50;;;0.60;;
56039;SDS011;43937;41.366;2.072;2023-04-30T14:43:05;1.10;;;1.00;;
56039;SDS011;43937;41.366;2.072;2023-04-30T14:45:33;0.65;;;0.50;;
56039;SDS011;43937;41.366;2.072;2023-04-30T14:47:59;0.65;;;0.50;;
56039;SDS011;43937;41.366;2.072;2023-04-30T14:50:25;1.17;;;0.73;;
56039;SDS011;43937;41.366;2.072;2023-04-30T14:52:51;1.77;;;0.68;;
56039;SDS011;43937;41.366;2.072;2023-04-30T14:55:17;0.98;;;0.57;;
56039;SDS011;43937;41.366;2.072;2023-04-30T14:57:42;0.73;;;0.55;;
56039;SDS011;43937;41.366;2.072;2023-04-30T15:00:08;2.53;;;1.30;;
56039;SDS011;43937;41.366;2.072;2023-04-30T15:02:34;1.60;;;0.70;;
56039;SDS011;43937;41.366;2.072;2023-04-30T15:05:01;0.47;;;0.40;;
56039;SDS011;43937;41.366;2.072;2023-04-30T15:07:28;4.00;;;1.30;;
56039;SDS011;43937;41.366;2.072;2023-04-30T15:09:53;1.10;;;0.57;;
56039;SDS011;43937;41.366;2.072;2023-04-30T15:12:19;1.00;;;0.77;;
56039;SDS011;43937;41.366;2.072;2023-04-30T15:14:46;1.50;;;0.60;;
56039;SDS011;43937;41.366;2.072;2023-04-30T15:17:11;4.15;;;1.08;;
56039;SDS011;43937;41.366;2.072;2023-04-30T15:19:37;6.60;;;1.85;;
56039;SDS011;43937;41.366;2.072;2023-04-30T15:22:04;2.70;;;0.85;;
56039;SDS011;43937;41.366;2.072;2023-04-30T15:24:30;1.45;;;0.75;;
56039;SDS011;43937;41.366;2.072;2023-04-30T15:26:56;2.08;;;0.80;;
56039;SDS011;43937;41.366;2.072;2023-04-30T15:29:21;2.25;;;0.95;;
56039;SDS011;43937;41.366;2.072;2023-04-30T15:31:47;1.17;;;0.40;;
56039;SDS011;43937;41.366;2.072;2023-04-30T15:34:16;1.33;;;0.80;;